createdAt,value
2022-09-07T00:02:01.783Z,26.66
2022-09-07T00:04:28.434Z,27.17
2022-09-07T00:06:55.107Z,26.62
2022-09-07T00:09:21.753Z,26.54
2022-09-07T00:11:48.329Z,26.65
2022-09-07T00:14:14.907Z,26.96
2022-09-07T00:16:41.726Z,26.41
2022-09-07T00:19:08.349Z,26.42
2022-09-07T00:21:35.533Z,26.62
2022-09-07T00:24:02.288Z,26.98
2022-09-07T00:26:30.905Z,27.12
2022-09-07T00:29:00.129Z,27.66
2022-09-07T00:31:28.047Z,27.13
2022-09-07T00:33:58.291Z,26.93
2022-09-07T00:36:25.333Z,26.51
2022-09-07T00:38:52.061Z,26.49
2022-09-07T00:41:20.466Z,26.70
2022-09-07T00:43:50.316Z,26.67
2022-09-07T00:46:23.641Z,27.12
2022-09-07T00:49:16.599Z,26.67
2022-09-07T00:51:52.346Z,26.70
2022-09-07T00:54:25.425Z,26.44
2022-09-07T00:56:53.601Z,26.35
2022-09-07T00:59:25.131Z,26.55
2022-09-07T01:01:52.146Z,26.64
2022-09-07T01:04:20.006Z,26.38
2022-09-07T01:06:46.670Z,26.34
2022-09-07T01:09:16.924Z,25.93
2022-09-07T01:11:50.597Z,25.84
2022-09-07T01:14:21.114Z,26.40
2022-09-07T01:17:28.637Z,27.33
2022-09-07T01:20:38.864Z,27.22
2022-09-07T01:23:32.548Z,26.11
2022-09-07T01:26:29.563Z,26.31
2022-09-07T01:29:35.500Z,26.16
2022-09-07T01:32:25.317Z,26.19
2022-09-07T01:34:53.759Z,26.60
2022-09-07T01:37:44.658Z,26.40
2022-09-07T01:40:24.323Z,26.70
2022-09-07T01:43:22.423Z,26.40
2022-09-07T01:45:52.634Z,26.90
2022-09-07T01:48:21.554Z,26.74
2022-09-07T01:51:02.494Z,26.41
2022-09-07T01:53:48.171Z,26.71
2022-09-07T01:56:21.523Z,26.59
2022-09-07T01:58:57.048Z,26.63
2022-09-07T02:01:33.321Z,26.74
2022-09-07T02:04:19.632Z,26.42
2022-09-07T02:06:50.766Z,27.42
2022-09-07T02:09:21.442Z,26.97
2022-09-07T02:11:50.147Z,26.40
2022-09-07T02:14:24.950Z,26.16
2022-09-07T02:17:10.760Z,26.46
2022-09-07T02:19:43.009Z,26.51
2022-09-07T02:22:14.400Z,26.51
2022-09-07T02:24:45.904Z,26.71
2022-09-07T02:27:21.921Z,26.57
2022-09-07T02:29:48.671Z,26.52
2022-09-07T02:32:15.422Z,26.51
2022-09-07T02:34:42.024Z,26.74
2022-09-07T02:37:09.716Z,26.14
2022-09-07T02:39:36.807Z,26.83
2022-09-07T02:42:03.680Z,27.32
2022-09-07T02:44:35.463Z,27.41
2022-09-07T02:47:14.644Z,27.71
2022-09-07T02:50:18.828Z,26.66
2022-09-07T02:52:59.031Z,26.17
2022-09-07T02:55:56.042Z,25.83
2022-09-07T02:58:44.362Z,25.71
2022-09-07T03:01:35.329Z,25.96
2022-09-07T03:04:31.421Z,26.16
2022-09-07T03:07:29.405Z,26.23
2022-09-07T03:09:58.181Z,26.94
2022-09-07T03:12:24.782Z,26.65
2022-09-07T03:14:51.330Z,26.63
2022-09-07T03:17:17.952Z,26.54
2022-09-07T03:19:44.568Z,26.17
2022-09-07T03:22:11.688Z,26.59
2022-09-07T03:24:38.238Z,27.06
2022-09-07T03:27:04.977Z,27.01
2022-09-07T03:29:31.590Z,27.42
2022-09-07T03:31:58.528Z,27.83
2022-09-07T03:34:25.207Z,28.23
2022-09-07T03:36:51.791Z,27.84
2022-09-07T03:39:20.894Z,28.80
2022-09-07T03:41:47.805Z,29.25
2022-09-07T03:44:14.374Z,28.89
2022-09-07T03:46:41.011Z,29.02
2022-09-07T03:49:07.583Z,28.04
2022-09-07T03:51:34.107Z,28.26
2022-09-07T03:54:00.717Z,28.29
2022-09-07T03:56:27.739Z,29.03
2022-09-07T03:58:54.733Z,28.87
2022-09-07T04:01:26.535Z,27.72
2022-09-07T04:03:53.863Z,27.24
2022-09-07T04:06:21.255Z,28.13
2022-09-07T04:08:47.945Z,28.41
2022-09-07T04:11:17.762Z,26.44
2022-09-07T04:13:46.511Z,26.68
2022-09-07T04:16:17.793Z,27.03
2022-09-07T04:18:44.842Z,27.29
2022-09-07T04:21:11.838Z,27.81
2022-09-07T04:23:41.499Z,27.97
2022-09-07T04:26:14.884Z,27.03
2022-09-07T04:28:42.090Z,27.71
2022-09-07T04:31:08.743Z,26.55
2022-09-07T04:33:35.481Z,26.87
2022-09-07T04:36:02.830Z,27.27
2022-09-07T04:38:30.408Z,25.88
2022-09-07T04:41:08.164Z,25.69
2022-09-07T04:43:35.981Z,26.91
2022-09-07T04:46:07.299Z,26.40
2022-09-07T04:48:34.460Z,26.55
2022-09-07T04:51:06.244Z,28.20
2022-09-07T04:53:33.899Z,29.49
2022-09-07T04:56:00.692Z,29.68
2022-09-07T04:58:27.315Z,29.29
2022-09-07T05:00:54.033Z,28.70
2022-09-07T05:03:21.019Z,29.47
2022-09-07T05:05:47.616Z,30.05
2022-09-07T05:08:14.224Z,29.91
2022-09-07T05:10:51.276Z,29.47
2022-09-07T05:13:17.921Z,28.84
2022-09-07T05:15:44.486Z,28.37
2022-09-07T05:18:11.732Z,28.29
2022-09-07T05:20:38.315Z,28.60
2022-09-07T05:23:04.876Z,28.61
2022-09-07T05:25:32.694Z,28.53
2022-09-07T05:27:59.315Z,28.72
2022-09-07T05:33:13.055Z,28.24
2022-09-07T05:35:39.638Z,28.44
2022-09-07T05:38:06.240Z,28.69
2022-09-07T05:40:36.090Z,28.79
2022-09-07T05:43:05.094Z,28.81
2022-09-07T05:45:31.929Z,28.63
2022-09-07T05:47:58.502Z,28.26
2022-09-07T05:50:25.044Z,28.51
2022-09-07T05:52:51.598Z,28.89
2022-09-07T05:55:30.038Z,28.50
2022-09-07T05:57:57.387Z,28.94
2022-09-07T06:00:24.580Z,28.89
2022-09-07T06:02:51.324Z,28.77
2022-09-07T06:05:18.252Z,29.52
2022-09-07T06:07:48.096Z,29.61
2022-09-07T06:13:02.379Z,29.55
2022-09-07T06:15:28.959Z,29.62
2022-09-07T06:17:56.108Z,29.54
2022-09-07T06:20:22.681Z,29.21
2022-09-07T06:22:50.139Z,29.16
2022-09-07T06:25:16.760Z,28.86
2022-09-07T06:27:43.502Z,29.06
2022-09-07T06:30:10.483Z,29.43
2022-09-07T06:35:08.561Z,28.42
2022-09-07T06:37:35.398Z,27.99
2022-09-07T06:40:02.311Z,27.26
2022-09-07T06:42:28.858Z,27.12
2022-09-07T06:44:57.610Z,26.46
2022-09-07T06:47:24.278Z,26.34
2022-09-07T06:49:51.119Z,26.38
2022-09-07T06:52:17.675Z,26.70
2022-09-07T06:55:00.144Z,26.73
2022-09-07T06:57:27.721Z,25.87
2022-09-07T06:59:54.315Z,25.89
2022-09-07T07:02:20.933Z,27.04
2022-09-07T07:04:49.968Z,28.58
2022-09-07T07:07:16.562Z,29.16
2022-09-07T07:09:43.158Z,29.82
2022-09-07T07:12:11.051Z,29.76
2022-09-07T07:14:41.071Z,29.33
2022-09-07T07:17:10.732Z,29.37
2022-09-07T07:19:37.489Z,30.49
2022-09-07T07:22:29.427Z,31.35
2022-09-07T07:24:51.818Z,32.05
2022-09-07T07:27:18.370Z,32.13
2022-09-07T07:29:46.383Z,32.61
2022-09-07T07:32:13.308Z,32.72
2022-09-07T07:34:39.946Z,33.18
2022-09-07T07:37:06.675Z,33.11
2022-09-07T07:42:21.258Z,32.88
2022-09-07T07:44:48.697Z,33.13
2022-09-07T07:47:15.366Z,33.84
2022-09-07T07:49:41.874Z,34.29
2022-09-07T07:54:55.565Z,35.47
2022-09-07T07:57:22.058Z,36.37
2022-09-07T07:59:49.460Z,37.30
2022-09-07T08:02:16.951Z,37.95
2022-09-07T08:04:43.821Z,38.77
2022-09-07T08:07:11.952Z,39.64
2022-09-07T08:09:43.382Z,40.13
2022-09-07T08:12:12.958Z,41.02
2022-09-07T08:14:41.137Z,41.50
2022-09-07T08:17:09.794Z,41.39
2022-09-07T08:19:36.712Z,41.33
2022-09-07T08:22:04.092Z,41.23
2022-09-07T08:24:31.892Z,41.06
2022-09-07T08:26:58.538Z,39.77
2022-09-07T08:29:25.073Z,39.72
2022-09-07T08:31:51.702Z,40.05
2022-09-07T08:34:18.923Z,40.39
2022-09-07T08:36:48.032Z,39.85
2022-09-07T08:39:14.594Z,40.38
2022-09-07T08:42:13.537Z,40.56
2022-09-07T08:44:54.995Z,40.35
2022-09-07T08:47:58.361Z,39.53
2022-09-07T08:50:35.188Z,39.41
2022-09-07T08:53:08.432Z,39.12
2022-09-07T08:55:49.491Z,38.51
2022-09-07T08:58:50.587Z,37.76
2022-09-07T09:01:35.979Z,36.61
2022-09-07T09:04:19.370Z,36.22
2022-09-07T09:06:56.941Z,35.86
2022-09-07T09:09:29.183Z,35.03
2022-09-07T09:12:13.167Z,34.79
2022-09-07T09:14:54.673Z,34.89
2022-09-07T09:17:27.315Z,35.49
2022-09-07T09:20:03.926Z,35.13
2022-09-07T09:22:31.319Z,35.30
2022-09-07T09:25:20.545Z,34.83
2022-09-07T09:27:48.975Z,34.20
2022-09-07T09:30:22.298Z,34.00
2022-09-07T09:32:52.708Z,33.70
2022-09-07T09:35:34.697Z,34.55
2022-09-07T09:38:03.535Z,34.08
2022-09-07T09:40:33.609Z,33.93
2022-09-07T09:43:01.974Z,33.67
2022-09-07T09:48:33.682Z,34.72
2022-09-07T09:53:54.696Z,34.09
2022-09-07T09:56:22.785Z,34.62
2022-09-07T09:59:05.236Z,34.77
2022-09-07T10:01:33.584Z,34.93
2022-09-07T10:04:33.857Z,33.95
2022-09-07T10:07:14.847Z,34.33
2022-09-07T10:09:48.753Z,35.00
2022-09-07T10:12:28.834Z,34.95
2022-09-07T10:14:57.105Z,35.28
2022-09-07T10:17:31.227Z,36.22
2022-09-07T10:20:03.976Z,36.83
2022-09-07T10:22:35.689Z,37.16
2022-09-07T10:25:05.098Z,37.64
2022-09-07T10:27:33.302Z,37.83
2022-09-07T10:30:01.142Z,38.15
2022-09-07T10:32:57.416Z,38.30
2022-09-07T10:35:28.799Z,37.51
2022-09-07T10:38:16.637Z,37.96
2022-09-07T10:40:47.595Z,38.20
2022-09-07T10:43:45.716Z,38.65
2022-09-07T10:49:28.025Z,39.86
2022-09-07T10:52:22.300Z,39.06
2022-09-07T10:55:15.756Z,38.47
2022-09-07T10:57:45.648Z,38.35
2022-09-07T11:00:18.890Z,38.60
2022-09-07T11:06:16.551Z,38.25
2022-09-07T11:09:22.118Z,37.30
2022-09-07T11:12:02.983Z,37.85
2022-09-07T11:14:45.401Z,37.43
2022-09-07T11:17:27.015Z,37.75
2022-09-07T11:20:17.403Z,37.75
2022-09-07T11:22:52.008Z,38.06
2022-09-07T11:25:32.640Z,38.31
2022-09-07T11:28:08.216Z,37.84
2022-09-07T11:30:40.530Z,38.14
2022-09-07T11:33:19.124Z,37.33
2022-09-07T11:35:53.094Z,37.34
2022-09-07T11:38:25.819Z,36.49
2022-09-07T11:41:19.688Z,37.39
2022-09-07T11:43:51.060Z,36.46
2022-09-07T11:46:26.628Z,37.00
2022-09-07T11:48:55.887Z,36.98
2022-09-07T11:51:43.361Z,37.00
2022-09-07T11:54:33.814Z,37.82
2022-09-07T11:57:08.180Z,37.95
2022-09-07T11:59:45.138Z,37.51
2022-09-07T12:02:58.435Z,37.18
2022-09-07T12:05:53.454Z,38.01
2022-09-07T12:08:38.392Z,38.56
2022-09-07T12:11:11.223Z,37.77
2022-09-07T12:13:55.900Z,38.38
2022-09-07T12:16:40.939Z,37.65
2022-09-07T12:19:20.447Z,37.93
2022-09-07T12:21:53.540Z,38.41
2022-09-07T12:24:48.455Z,39.23
2022-09-07T12:27:21.296Z,38.86
2022-09-07T12:29:51.122Z,38.65
2022-09-07T12:32:54.978Z,38.97
2022-09-07T12:35:31.029Z,39.13
2022-09-07T12:37:58.802Z,39.13
2022-09-07T12:40:33.147Z,38.70
2022-09-07T12:43:14.812Z,39.28
2022-09-07T12:45:41.927Z,39.34
2022-09-07T12:48:17.654Z,39.66
2022-09-07T12:51:00.305Z,40.36
2022-09-07T12:53:58.069Z,40.06
2022-09-07T12:56:30.613Z,40.67
2022-09-07T12:59:31.372Z,40.14
2022-09-07T13:02:10.313Z,40.20
2022-09-07T13:05:02.671Z,40.88
2022-09-07T13:07:41.130Z,40.82
2022-09-07T13:10:28.040Z,40.34
2022-09-07T13:13:01.308Z,40.02
2022-09-07T13:15:48.857Z,39.80
2022-09-07T13:18:28.172Z,39.68
2022-09-07T13:21:32.054Z,39.81
2022-09-07T13:27:03.757Z,38.67
2022-09-07T13:29:55.224Z,38.87
2022-09-07T13:35:22.200Z,39.58
2022-09-07T13:37:57.626Z,40.07
2022-09-07T13:40:27.797Z,40.44
2022-09-07T13:42:56.807Z,39.81
2022-09-07T13:45:57.667Z,39.82
2022-09-07T13:48:48.946Z,39.55
2022-09-07T13:51:55.573Z,39.38
2022-09-07T13:54:50.779Z,39.75
2022-09-07T13:57:49.837Z,40.13
2022-09-07T14:00:17.337Z,39.79
2022-09-07T14:02:44.659Z,39.35
2022-09-07T14:05:18.418Z,39.47
2022-09-07T14:07:45.982Z,39.34
2022-09-07T14:10:25.057Z,39.36
2022-09-07T14:13:06.738Z,39.43
2022-09-07T14:15:45.804Z,39.36
2022-09-07T14:18:15.131Z,39.37
2022-09-07T14:20:51.329Z,39.70
2022-09-07T14:23:28.006Z,39.72
2022-09-07T14:26:17.278Z,39.42
2022-09-07T14:28:45.975Z,39.20
2022-09-07T14:31:15.807Z,38.73
2022-09-07T14:34:01.453Z,38.65
2022-09-07T14:36:46.743Z,38.49
2022-09-07T14:39:16.431Z,38.89
2022-09-07T14:41:44.146Z,38.81
2022-09-07T14:44:29.188Z,38.20
2022-09-07T14:46:57.707Z,37.79
2022-09-07T14:49:24.643Z,36.54
2022-09-07T14:51:54.015Z,36.15
2022-09-07T14:54:30.784Z,36.02
2022-09-07T14:57:03.385Z,36.71
2022-09-07T14:59:43.267Z,37.25
2022-09-07T15:02:36.623Z,37.61
2022-09-07T15:05:15.077Z,36.98
2022-09-07T15:07:46.965Z,37.37
2022-09-07T15:10:23.456Z,37.60
2022-09-07T15:12:59.412Z,37.37
2022-09-07T15:15:35.017Z,37.27
2022-09-07T15:18:23.088Z,37.37
2022-09-07T15:20:50.576Z,37.54
2022-09-07T15:23:19.576Z,37.33
2022-09-07T15:25:51.958Z,37.39
2022-09-07T15:34:12.004Z,37.03
2022-09-07T15:37:00.258Z,36.99
2022-09-07T15:39:29.517Z,37.55
2022-09-07T15:41:57.205Z,37.25
2022-09-07T15:44:26.493Z,37.28
2022-09-07T15:49:46.073Z,37.49
2022-09-07T15:52:16.430Z,37.43
2022-09-07T15:54:43.493Z,37.89
2022-09-07T15:59:57.346Z,38.50
2022-09-07T16:05:10.865Z,38.70
2022-09-07T16:10:24.807Z,38.52
2022-09-07T16:15:46.125Z,38.53
2022-09-07T16:18:16.445Z,38.28
2022-09-07T16:20:44.033Z,38.46
2022-09-07T16:23:13.683Z,38.49
2022-09-07T16:25:43.036Z,38.20
2022-09-07T16:28:09.879Z,38.30
2022-09-07T16:30:39.998Z,38.62
2022-09-07T16:33:06.661Z,39.00
2022-09-07T16:35:33.528Z,38.80
2022-09-07T16:40:46.994Z,38.87
2022-09-07T16:43:13.528Z,39.10
2022-09-07T16:48:27.750Z,39.50
2022-09-07T16:51:01.150Z,39.58
2022-09-07T16:53:31.004Z,39.53
2022-09-07T16:56:24.668Z,39.87
2022-09-07T16:58:54.725Z,39.76
2022-09-07T17:01:24.395Z,39.70
2022-09-07T17:03:52.215Z,39.65
2022-09-07T17:06:21.050Z,39.68
2022-09-07T17:08:47.845Z,39.56
2022-09-07T17:11:17.773Z,39.50
2022-09-07T17:13:45.179Z,39.49
2022-09-07T17:16:13.415Z,39.44
2022-09-07T17:21:36.206Z,39.07
2022-09-07T17:24:05.113Z,38.99
2022-09-07T17:26:32.553Z,38.89
2022-09-07T17:29:01.056Z,38.54
2022-09-07T17:34:20.194Z,38.61
2022-09-07T17:36:47.315Z,38.26
2022-09-07T17:39:16.199Z,38.11
2022-09-07T17:41:44.738Z,37.84
2022-09-07T17:44:11.596Z,37.83
2022-09-07T17:46:38.412Z,37.90
2022-09-07T17:49:07.050Z,38.08
2022-09-07T17:51:33.647Z,37.88
2022-09-07T17:54:09.675Z,37.99
2022-09-07T17:56:37.300Z,37.45
2022-09-07T18:01:50.815Z,37.53
2022-09-07T18:04:17.584Z,37.29
2022-09-07T18:06:44.139Z,37.10
2022-09-07T18:09:11.219Z,37.32
2022-09-07T18:11:46.373Z,36.95
2022-09-07T18:14:14.450Z,36.92
2022-09-07T18:16:42.437Z,37.23
2022-09-07T18:19:10.969Z,37.09
2022-09-07T18:21:38.282Z,36.96
2022-09-07T18:24:16.500Z,36.93
2022-09-07T18:26:44.759Z,36.94
2022-09-07T18:29:28.099Z,36.98
2022-09-07T18:31:56.687Z,36.80
2022-09-07T18:34:23.314Z,36.84
2022-09-07T18:36:50.109Z,36.84
2022-09-07T18:39:17.086Z,36.59
2022-09-07T18:41:43.988Z,36.40
2022-09-07T18:46:57.197Z,35.78
2022-09-07T18:49:24.943Z,35.82
2022-09-07T18:54:41.324Z,35.82
2022-09-07T18:57:08.186Z,35.64
2022-09-07T18:59:35.363Z,35.51
2022-09-07T19:02:04.780Z,35.53
2022-09-07T19:07:27.350Z,35.19
2022-09-07T19:09:56.377Z,35.24
2022-09-07T19:12:24.159Z,35.22
2022-09-07T19:14:50.921Z,35.07
2022-09-07T19:17:17.821Z,35.03
2022-09-07T19:19:44.460Z,34.99
2022-09-07T19:22:10.997Z,34.87
2022-09-07T19:24:38.187Z,34.79
2022-09-07T19:27:07.452Z,35.01
2022-09-07T19:29:34.071Z,35.06
2022-09-07T19:32:11.898Z,35.49
2022-09-07T19:34:43.316Z,35.64
2022-09-07T19:37:12.042Z,35.36
2022-09-07T19:39:38.799Z,34.34
2022-09-07T19:42:06.234Z,33.85
2022-09-07T19:44:33.233Z,33.46
2022-09-07T19:47:00.628Z,33.91
2022-09-07T19:49:27.862Z,34.15
2022-09-07T19:51:54.791Z,34.21
2022-09-07T19:54:21.511Z,34.54
2022-09-07T19:56:48.596Z,34.37
2022-09-07T19:59:15.230Z,34.10
2022-09-07T20:01:46.201Z,33.42
2022-09-07T20:04:20.419Z,32.84
2022-09-07T20:06:49.824Z,33.11
2022-09-07T20:09:18.502Z,33.29
2022-09-07T20:11:47.361Z,33.29
2022-09-07T20:14:17.460Z,33.45
2022-09-07T20:16:44.163Z,33.40
2022-09-07T20:19:12.209Z,32.96
2022-09-07T20:21:38.827Z,33.09
2022-09-07T20:24:05.803Z,32.57
2022-09-07T20:26:32.683Z,32.48
2022-09-07T20:29:16.799Z,32.61
2022-09-07T20:31:47.559Z,32.46
2022-09-07T20:34:14.407Z,32.48
2022-09-07T20:36:41.551Z,32.54
2022-09-07T20:39:08.122Z,32.42
2022-09-07T20:41:35.668Z,32.44
2022-09-07T20:44:04.102Z,31.48
2022-09-07T20:46:31.276Z,32.15
2022-09-07T20:48:58.195Z,32.80
2022-09-07T20:51:24.900Z,32.93
2022-09-07T20:53:51.951Z,33.05
2022-09-07T20:56:23.583Z,33.02
2022-09-07T20:58:55.301Z,32.89
2022-09-07T21:01:22.394Z,32.40
2022-09-07T21:03:51.338Z,32.50
2022-09-07T21:06:20.288Z,32.20
2022-09-07T21:08:47.721Z,31.84
2022-09-07T21:11:20.563Z,31.95
2022-09-07T21:13:47.671Z,31.83
2022-09-07T21:16:16.223Z,31.68
2022-09-07T21:18:44.381Z,31.61
2022-09-07T21:21:20.412Z,31.89
2022-09-07T21:23:47.821Z,31.83
2022-09-07T21:26:14.630Z,32.07
2022-09-07T21:28:41.139Z,32.14
2022-09-07T21:31:08.869Z,32.05
2022-09-07T21:33:37.237Z,32.04
2022-09-07T21:36:04.749Z,32.21
2022-09-07T21:38:31.347Z,32.25
2022-09-07T21:40:57.858Z,32.44
2022-09-07T21:43:24.366Z,32.12
2022-09-07T21:45:51.164Z,32.30
2022-09-07T21:48:17.646Z,32.43
2022-09-07T21:50:46.695Z,32.48
2022-09-07T21:53:13.239Z,32.73
2022-09-07T21:55:39.975Z,32.61
2022-09-07T21:58:06.509Z,32.65
2022-09-07T22:00:33.540Z,32.54
2022-09-07T22:03:00.787Z,32.40
2022-09-07T22:05:27.443Z,32.37
2022-09-07T22:07:53.952Z,32.18
2022-09-07T22:10:20.855Z,31.92
2022-09-07T22:12:47.342Z,32.17
2022-09-07T22:15:14.277Z,32.07
2022-09-07T22:17:45.671Z,32.08
2022-09-07T22:20:12.802Z,32.04
2022-09-07T22:22:39.340Z,32.11
2022-09-07T22:25:06.401Z,32.13
2022-09-07T22:27:32.911Z,32.42
2022-09-07T22:29:59.423Z,32.36
2022-09-07T22:32:25.953Z,32.41
2022-09-07T22:34:53.087Z,32.23
2022-09-07T22:37:19.601Z,32.11
2022-09-07T22:39:46.140Z,32.14
2022-09-07T22:42:12.666Z,32.06
2022-09-07T22:44:39.572Z,32.27
2022-09-07T22:47:06.103Z,32.28
2022-09-07T22:49:33.177Z,32.32
2022-09-07T22:51:59.706Z,32.31
2022-09-07T22:54:26.316Z,32.31
2022-09-07T22:56:52.932Z,32.34
2022-09-07T22:59:19.451Z,32.29
2022-09-07T23:01:46.882Z,32.22
2022-09-07T23:04:13.639Z,32.02
2022-09-07T23:06:42.336Z,31.98
2022-09-07T23:09:12.695Z,31.82
2022-09-07T23:11:39.687Z,31.68
2022-09-07T23:14:12.275Z,31.60
2022-09-07T23:16:39.291Z,31.75
2022-09-07T23:19:05.951Z,31.77
2022-09-07T23:21:32.748Z,32.16
2022-09-07T23:23:59.947Z,32.41
2022-09-07T23:26:29.528Z,32.37
2022-09-07T23:28:59.041Z,31.74
2022-09-07T23:31:26.924Z,31.78
2022-09-07T23:33:53.952Z,31.86
2022-09-07T23:36:20.488Z,32.01
2022-09-07T23:38:47.299Z,32.05
2022-09-07T23:41:14.748Z,32.20
2022-09-07T23:43:41.637Z,32.15
2022-09-07T23:46:09.712Z,32.15
2022-09-07T23:48:36.347Z,32.21
2022-09-07T23:51:02.926Z,32.08
2022-09-07T23:53:29.894Z,32.11
2022-09-07T23:55:56.806Z,32.03
2022-09-07T23:58:23.739Z,32.01
